Time,TemperatureF,DewpointF,PressureIn,WindDirection,WindDirectionDegrees,WindSpeedMPH,WindSpeedGustMPH,Humidity,HourlyPrecipIn,Conditions,Clouds,dailyrainin,SoftwareType,DateUTC
2013-02-04 00:00:00,43.5,42.7,30.16,WNW,283,0.0,0.0,97,0.00,,,0.00,Wunderground v.1.15,2013-02-04 08:00:00,
2013-02-04 00:05:00,43.7,42.9,30.16,WNW,283,0.0,0.0,97,0.00,,,0.00,Wunderground v.1.15,2013-02-04 08:05:00,
2013-02-04 00:15:00,43.5,42.7,30.15,WNW,283,0.0,0.0,97,0.00,,,0.00,Wunderground v.1.15,2013-02-04 08:15:00,
2013-02-04 00:25:00,43.4,42.6,30.16,WNW,283,0.0,0.0,97,0.00,,,0.00,Wunderground v.1.15,2013-02-04 08:25:00,
2013-02-04 00:30:00,43.3,42.5,30.16,WNW,283,0.0,0.0,97,0.00,,,0.00,Wunderground v.1.15,2013-02-04 08:30:00,
2013-02-04 00:35:00,43.3,42.5,30.16,WNW,283,0.0,0.0,97,0.00,,,0.00,Wunderground v.1.15,2013-02-04 08:35:00,
2013-02-04 00:40:00,43.5,43.0,30.16,WNW,283,0.0,0.0,98,0.00,,,0.00,Wunderground v.1.15,2013-02-04 08:40:00,
2013-02-04 00:45:00,43.7,42.9,30.16,WNW,283,0.0,0.0,97,0.00,,,0.00,Wunderground v.1.15,2013-02-04 08:45:00,
2013-02-04 00:55:00,44.0,43.5,30.16,WNW,283,0.0,0.0,98,0.00,,,0.00,Wunderground v.1.15,2013-02-04 08:55:00,
2013-02-04 01:00:00,44.1,43.6,30.16,WNW,283,0.0,0.0,98,0.00,,,0.00,Wunderground v.1.15,2013-02-04 09:00:00,
2013-02-04 01:05:00,43.9,43.4,30.16,WNW,283,0.0,1.0,98,0.00,,,0.00,Wunderground v.1.15,2013-02-04 09:05:00,
2013-02-04 01:10:00,43.7,42.9,30.16,WNW,283,0.0,1.0,97,0.00,,,0.00,Wunderground v.1.15,2013-02-04 09:10:00,
2013-02-04 01:20:00,43.7,43.2,30.16,WNW,283,0.0,1.0,98,0.00,,,0.00,Wunderground v.1.15,2013-02-04 09:20:00,
2013-02-04 01:25:00,43.7,43.2,30.16,WNW,283,0.0,1.0,98,0.00,,,0.00,Wunderground v.1.15,2013-02-04 09:25:00,
2013-02-04 01:30:00,43.7,43.2,30.16,WNW,283,0.0,1.0,98,0.00,,,0.00,Wunderground v.1.15,2013-02-04 09:30:00,
2013-02-04 01:35:00,43.6,43.1,30.16,WNW,283,0.0,1.0,98,0.00,,,0.00,Wunderground v.1.15,2013-02-04 09:35:00,
2013-02-04 01:45:00,43.6,43.1,30.16,WNW,283,0.0,1.0,98,0.00,,,0.00,Wunderground v.1.15,2013-02-04 09:45:00,
2013-02-04 01:50:00,43.6,43.1,30.16,WNW,283,0.0,1.0,98,0.00,,,0.00,Wunderground v.1.15,2013-02-04 09:50:00,
2013-02-04 01:55:00,43.6,43.1,30.16,WNW,283,0.0,1.0,98,0.00,,,0.00,Wunderground v.1.15,2013-02-04 09:55:00,
2013-02-04 02:00:00,43.6,43.1,30.16,WNW,283,0.0,1.0,98,0.00,,,0.01,Wunderground v.1.15,2013-02-04 10:00:00,
2013-02-04 02:05:00,43.6,43.1,30.16,WNW,283,0.0,1.0,98,0.00,,,0.01,Wunderground v.1.15,2013-02-04 10:05:00,
2013-02-04 02:15:00,43.6,43.1,30.16,WNW,283,0.0,1.0,98,0.00,,,0.01,Wunderground v.1.15,2013-02-04 10:15:00,
2013-02-04 02:20:00,43.6,43.1,30.16,WNW,283,0.0,1.0,98,0.00,,,0.01,Wunderground v.1.15,2013-02-04 10:20:00,
2013-02-04 02:25:00,43.6,43.1,30.16,WNW,283,0.0,1.0,98,0.00,,,0.01,Wunderground v.1.15,2013-02-04 10:25:00,
2013-02-04 02:30:00,43.4,42.9,30.16,WNW,283,0.0,1.0,98,0.00,,,0.01,Wunderground v.1.15,2013-02-04 10:30:00,
2013-02-04 02:35:00,43.3,42.8,30.16,WNW,283,0.0,1.0,98,0.00,,,0.01,Wunderground v.1.15,2013-02-04 10:35:00,
2013-02-04 02:45:00,43.3,42.8,30.15,WNW,283,0.0,1.0,98,0.00,,,0.01,Wunderground v.1.15,2013-02-04 10:45:00,
2013-02-04 02:50:00,43.3,42.8,30.15,WNW,283,0.0,1.0,98,0.00,,,0.01,Wunderground v.1.15,2013-02-04 10:50:00,
2013-02-04 02:55:00,43.3,42.8,30.15,WNW,283,0.0,1.0,98,0.00,,,0.01,Wunderground v.1.15,2013-02-04 10:55:00,
2013-02-04 03:00:00,43.2,42.7,30.15,WNW,283,0.0,1.0,98,0.00,,,0.01,Wunderground v.1.15,2013-02-04 11:00:00,
2013-02-04 03:05:00,43.2,42.7,30.15,WNW,283,0.0,1.0,98,0.00,,,0.01,Wunderground v.1.15,2013-02-04 11:05:00,
2013-02-04 03:15:00,43.0,42.5,30.15,WNW,283,0.0,2.0,98,0.00,,,0.01,Wunderground v.1.15,2013-02-04 11:15:00,
2013-02-04 03:20:00,42.9,42.4,30.14,WNW,283,0.0,1.0,98,0.00,,,0.01,Wunderground v.1.15,2013-02-04 11:20:00,
2013-02-04 03:25:00,42.9,42.4,30.14,WNW,283,0.0,1.0,98,0.00,,,0.01,Wunderground v.1.15,2013-02-04 11:25:00,
2013-02-04 03:35:00,42.7,42.2,30.14,WNW,283,0.0,1.0,98,0.00,,,0.01,Wunderground v.1.15,2013-02-04 11:35:00,
2013-02-04 03:40:00,42.6,42.1,30.14,WNW,283,0.0,1.0,98,0.00,,,0.01,Wunderground v.1.15,2013-02-04 11:40:00,
2013-02-04 03:45:00,42.5,42.0,30.14,WNW,283,0.0,1.0,98,0.00,,,0.01,Wunderground v.1.15,2013-02-04 11:45:00,
2013-02-04 03:50:00,42.5,42.0,30.14,WNW,283,0.0,1.0,98,0.00,,,0.01,Wunderground v.1.15,2013-02-04 11:50:00,
2013-02-04 04:00:00,42.3,41.8,30.14,WNW,283,0.0,1.0,98,0.00,,,0.01,Wunderground v.1.15,2013-02-04 12:00:00,
2013-02-04 04:05:00,42.3,41.8,30.15,WNW,283,0.0,1.0,98,0.00,,,0.01,Wunderground v.1.15,2013-02-04 12:05:00,
2013-02-04 04:10:00,42.3,41.8,30.15,WNW,283,0.0,1.0,98,0.00,,,0.01,Wunderground v.1.15,2013-02-04 12:10:00,
2013-02-04 04:15:00,42.3,41.8,30.15,WNW,283,0.0,1.0,98,0.00,,,0.01,Wunderground v.1.15,2013-02-04 12:15:00,
2013-02-04 04:20:00,42.3,41.8,30.15,WNW,283,0.0,3.0,98,0.00,,,0.01,Wunderground v.1.15,2013-02-04 12:20:00,
2013-02-04 04:30:00,42.6,42.1,30.15,WNW,282,0.0,1.0,98,0.00,,,0.01,Wunderground v.1.15,2013-02-04 12:30:00,
2013-02-04 04:35:00,42.6,42.1,30.15,WNW,282,0.0,1.0,98,0.00,,,0.01,Wunderground v.1.15,2013-02-04 12:35:00,
2013-02-04 04:40:00,42.5,42.0,30.15,WNW,282,0.0,1.0,98,0.00,,,0.01,Wunderground v.1.15,2013-02-04 12:40:00,
2013-02-04 04:45:00,42.5,42.0,30.15,WNW,282,0.0,1.0,98,0.00,,,0.01,Wunderground v.1.15,2013-02-04 12:45:00,
2013-02-04 04:50:00,42.5,42.0,30.15,WNW,282,0.0,1.0,98,0.00,,,0.01,Wunderground v.1.15,2013-02-04 12:50:00,
2013-02-04 05:00:00,42.5,42.0,30.15,WNW,282,0.0,1.0,98,0.00,,,0.01,Wunderground v.1.15,2013-02-04 13:00:00,
2013-02-04 05:05:00,42.5,42.0,30.14,WNW,282,0.0,1.0,98,0.00,,,0.01,Wunderground v.1.15,2013-02-04 13:05:00,
2013-02-04 05:10:00,42.6,42.1,30.15,WNW,282,0.0,1.0,98,0.00,,,0.01,Wunderground v.1.15,2013-02-04 13:10:00,
2013-02-04 05:15:00,42.6,42.1,30.15,WNW,282,0.0,1.0,98,0.00,,,0.01,Wunderground v.1.15,2013-02-04 13:15:00,
2013-02-04 05:20:00,42.7,42.2,30.15,WNW,282,0.0,1.0,98,0.00,,,0.01,Wunderground v.1.15,2013-02-04 13:20:00,
2013-02-04 05:30:00,42.8,42.3,30.15,WNW,282,0.0,1.0,98,0.00,,,0.01,Wunderground v.1.15,2013-02-04 13:30:00,
2013-02-04 05:35:00,42.8,42.3,30.15,WNW,282,0.0,1.0,98,0.00,,,0.01,Wunderground v.1.15,2013-02-04 13:35:00,
2013-02-04 05:40:00,42.9,42.4,30.14,WNW,282,0.0,1.0,98,0.00,,,0.01,Wunderground v.1.15,2013-02-04 13:40:00,
2013-02-04 05:45:00,42.9,42.4,30.15,WNW,282,0.0,1.0,98,0.00,,,0.01,Wunderground v.1.15,2013-02-04 13:45:00,
2013-02-04 05:55:00,43.0,42.5,30.14,WNW,282,0.0,1.0,98,0.00,,,0.01,Wunderground v.1.15,2013-02-04 13:55:00,
2013-02-04 06:00:00,43.1,42.6,30.14,WNW,282,0.0,1.0,98,0.00,,,0.01,Wunderground v.1.15,2013-02-04 14:00:00,
2013-02-04 06:05:00,43.1,42.6,30.15,WNW,282,0.0,1.0,98,0.00,,,0.01,Wunderground v.1.15,2013-02-04 14:05:00,
2013-02-04 06:10:00,43.2,42.7,30.15,WNW,282,0.0,1.0,98,0.00,,,0.01,Wunderground v.1.15,2013-02-04 14:10:00,
2013-02-04 06:15:00,43.3,42.8,30.15,WNW,282,0.0,1.0,98,0.00,,,0.01,Wunderground v.1.15,2013-02-04 14:15:00,
2013-02-04 06:25:00,43.5,43.0,30.15,WNW,282,0.0,1.0,98,0.00,,,0.01,Wunderground v.1.15,2013-02-04 14:25:00,
2013-02-04 06:30:00,43.5,43.0,30.15,WNW,282,1.0,1.0,98,0.00,,,0.01,Wunderground v.1.15,2013-02-04 14:30:00,
2013-02-04 06:35:00,43.5,43.0,30.15,WNW,282,1.0,1.0,98,0.00,,,0.01,Wunderground v.1.15,2013-02-04 14:35:00,
2013-02-04 06:40:00,43.5,43.0,30.16,WNW,282,1.0,1.0,98,0.00,,,0.01,Wunderground v.1.15,2013-02-04 14:40:00,
2013-02-04 06:45:00,43.6,43.1,30.16,WNW,282,0.0,1.0,98,0.00,,,0.01,Wunderground v.1.15,2013-02-04 14:45:00,
2013-02-04 06:55:00,43.5,43.0,30.16,WNW,282,0.0,1.0,98,0.00,,,0.01,Wunderground v.1.15,2013-02-04 14:55:00,
2013-02-04 07:00:00,43.5,43.0,30.15,WNW,282,0.0,1.0,98,0.00,,,0.01,Wunderground v.1.15,2013-02-04 15:00:00,
2013-02-04 07:05:00,43.4,42.9,30.15,WNW,282,0.0,1.0,98,0.00,,,0.01,Wunderground v.1.15,2013-02-04 15:05:00,
2013-02-04 07:10:00,43.4,42.9,30.16,WNW,282,0.0,2.0,98,0.00,,,0.01,Wunderground v.1.15,2013-02-04 15:10:00,
2013-02-04 07:15:00,43.4,42.9,30.16,WNW,282,1.0,2.0,98,0.00,,,0.01,Wunderground v.1.15,2013-02-04 15:15:00,
2013-02-04 07:25:00,43.4,42.9,30.16,WNW,282,0.0,1.0,98,0.00,,,0.01,Wunderground v.1.15,2013-02-04 15:25:00,
2013-02-04 07:30:00,43.3,43.0,30.16,WNW,282,0.0,1.0,99,0.00,,,0.01,Wunderground v.1.15,2013-02-04 15:30:00,
2013-02-04 07:35:00,43.2,42.9,30.16,WNW,282,0.0,1.0,99,0.00,,,0.01,Wunderground v.1.15,2013-02-04 15:35:00,
2013-02-04 07:45:00,43.0,42.7,30.16,WNW,282,1.0,2.0,99,0.00,,,0.01,Wunderground v.1.15,2013-02-04 15:45:00,
2013-02-04 07:50:00,42.8,42.3,30.16,WNW,282,1.0,1.0,98,0.00,,,0.01,Wunderground v.1.15,2013-02-04 15:50:00,
2013-02-04 07:55:00,42.7,42.4,30.16,West,281,0.0,1.0,99,0.00,,,0.01,Wunderground v.1.15,2013-02-04 15:55:00,
2013-02-04 08:00:00,42.7,42.4,30.17,WNW,283,0.0,1.0,99,0.00,,,0.01,Wunderground v.1.15,2013-02-04 16:00:00,
2013-02-04 08:05:00,42.9,42.4,30.17,WNW,284,0.0,1.0,98,0.00,,,0.01,Wunderground v.1.15,2013-02-04 16:05:00,
2013-02-04 08:15:00,43.1,42.6,30.17,West,279,0.0,1.0,98,0.00,,,0.01,Wunderground v.1.15,2013-02-04 16:15:00,
2013-02-04 08:20:00,43.0,42.5,30.17,West,279,0.0,1.0,98,0.00,,,0.01,Wunderground v.1.15,2013-02-04 16:20:00,
2013-02-04 08:25:00,43.0,42.5,30.17,West,279,0.0,1.0,98,0.00,,,0.01,Wunderground v.1.15,2013-02-04 16:25:00,
2013-02-04 08:30:00,43.1,42.6,30.17,West,279,0.0,1.0,98,0.00,,,0.01,Wunderground v.1.15,2013-02-04 16:30:00,
2013-02-04 08:35:00,43.2,42.9,30.17,West,269,0.0,1.0,99,0.00,,,0.01,Wunderground v.1.15,2013-02-04 16:35:00,
2013-02-04 08:45:00,43.4,43.1,30.17,West,279,0.0,1.0,99,0.00,,,0.01,Wunderground v.1.15,2013-02-04 16:45:00,
2013-02-04 08:50:00,43.4,42.9,30.17,West,273,0.0,2.0,98,0.00,,,0.01,Wunderground v.1.15,2013-02-04 16:50:00,
2013-02-04 08:55:00,43.4,43.1,30.17,WNW,290,0.0,2.0,99,0.00,,,0.01,Wunderground v.1.15,2013-02-04 16:55:00,
2013-02-04 09:00:00,43.7,43.4,30.17,WNW,290,0.0,1.0,99,0.00,,,0.01,Wunderground v.1.15,2013-02-04 17:00:00,
2013-02-04 09:10:00,43.9,43.6,30.18,WNW,284,0.0,1.0,99,0.00,,,0.01,Wunderground v.1.15,2013-02-04 17:10:00,
2013-02-04 09:15:00,44.1,43.8,30.18,WNW,283,0.0,1.0,99,0.00,,,0.01,Wunderground v.1.15,2013-02-04 17:15:00,
2013-02-04 09:20:00,44.0,43.7,30.18,WNW,284,0.0,1.0,99,0.00,,,0.01,Wunderground v.1.15,2013-02-04 17:20:00,
2013-02-04 09:25:00,44.0,43.7,30.18,WNW,283,1.0,1.0,99,0.00,,,0.01,Wunderground v.1.15,2013-02-04 17:25:00,
2013-02-04 09:30:00,44.2,43.9,30.18,WNW,283,0.0,1.0,99,0.00,,,0.01,Wunderground v.1.15,2013-02-04 17:30:00,
2013-02-04 09:40:00,45.0,44.7,30.18,WNW,300,0.0,1.0,99,0.00,,,0.01,Wunderground v.1.15,2013-02-04 17:40:00,
2013-02-04 09:45:00,45.4,45.1,30.18,WNW,296,0.0,1.0,99,0.00,,,0.01,Wunderground v.1.15,2013-02-04 17:45:00,
2013-02-04 09:50:00,45.5,45.2,30.18,WNW,288,0.0,1.0,99,0.00,,,0.01,Wunderground v.1.15,2013-02-04 17:50:00,
2013-02-04 09:55:00,45.6,45.3,30.18,WNW,288,0.0,1.0,99,0.00,,,0.01,Wunderground v.1.15,2013-02-04 17:55:00,
2013-02-04 10:05:00,46.1,45.8,30.18,WNW,288,0.0,1.0,99,0.00,,,0.01,Wunderground v.1.15,2013-02-04 18:05:00,
2013-02-04 10:10:00,46.1,45.8,30.18,WNW,290,0.0,1.0,99,0.00,,,0.01,Wunderground v.1.15,2013-02-04 18:10:00,
2013-02-04 10:15:00,46.3,46.0,30.18,WNW,290,0.0,1.0,99,0.00,,,0.01,Wunderground v.1.15,2013-02-04 18:15:00,
2013-02-04 10:20:00,46.4,46.1,30.18,WNW,290,0.0,1.0,99,0.00,,,0.01,Wunderground v.1.15,2013-02-04 18:20:00,
2013-02-04 10:25:00,46.4,46.1,30.18,WNW,289,0.0,1.0,99,0.00,,,0.01,Wunderground v.1.15,2013-02-04 18:25:00,
2013-02-04 10:35:00,46.6,46.3,30.18,WNW,282,0.0,2.0,99,0.00,,,0.01,Wunderground v.1.15,2013-02-04 18:35:00,
2013-02-04 10:40:00,46.3,46.0,30.18,West,279,1.0,1.0,99,0.00,,,0.01,Wunderground v.1.15,2013-02-04 18:40:00,
2013-02-04 10:45:00,46.3,46.0,30.18,SW,214,0.0,1.0,99,0.00,,,0.01,Wunderground v.1.15,2013-02-04 18:45:00,
2013-02-04 10:50:00,46.4,46.1,30.18,SW,214,0.0,1.0,99,0.00,,,0.01,Wunderground v.1.15,2013-02-04 18:50:00,
2013-02-04 10:55:00,46.5,46.2,30.18,SW,214,0.0,1.0,99,0.00,,,0.01,Wunderground v.1.15,2013-02-04 18:55:00,
2013-02-04 11:05:00,46.9,46.6,30.18,SW,214,0.0,1.0,99,0.00,,,0.01,Wunderground v.1.15,2013-02-04 19:05:00,
2013-02-04 11:10:00,46.7,46.4,30.18,SW,214,0.0,1.0,99,0.00,,,0.01,Wunderground v.1.15,2013-02-04 19:10:00,
2013-02-04 11:15:00,46.9,46.6,30.18,SW,214,0.0,1.0,99,0.00,,,0.01,Wunderground v.1.15,2013-02-04 19:15:00,
2013-02-04 11:20:00,47.2,46.9,30.18,SSW,200,1.0,2.0,99,0.00,,,0.01,Wunderground v.1.15,2013-02-04 19:20:00,
2013-02-04 11:30:00,47.4,47.1,30.18,SW,219,0.0,1.0,99,0.00,,,0.01,Wunderground v.1.15,2013-02-04 19:30:00,
2013-02-04 11:35:00,47.5,47.2,30.18,SW,219,0.0,1.0,99,0.00,,,0.01,Wunderground v.1.15,2013-02-04 19:35:00,
2013-02-04 11:40:00,47.6,47.3,30.17,SW,219,0.0,1.0,99,0.00,,,0.01,Wunderground v.1.15,2013-02-04 19:40:00,
2013-02-04 11:45:00,47.8,47.5,30.17,SW,219,0.0,1.0,99,0.00,,,0.01,Wunderground v.1.15,2013-02-04 19:45:00,
2013-02-04 11:55:00,48.4,48.1,30.17,NW,305,0.0,1.0,99,0.00,,,0.01,Wunderground v.1.15,2013-02-04 19:55:00,
2013-02-04 12:00:00,48.4,48.1,30.16,WNW,302,0.0,1.0,99,0.00,,,0.01,Wunderground v.1.15,2013-02-04 20:00:00,
2013-02-04 12:05:00,48.3,48.0,30.15,WNW,302,0.0,1.0,99,0.00,,,0.01,Wunderground v.1.15,2013-02-04 20:05:00,
2013-02-04 12:10:00,48.4,48.1,30.15,WNW,302,0.0,1.0,99,0.00,,,0.01,Wunderground v.1.15,2013-02-04 20:10:00,
2013-02-04 12:20:00,48.5,48.2,30.15,WNW,294,0.0,1.0,99,0.00,,,0.01,Wunderground v.1.15,2013-02-04 20:20:00,
2013-02-04 12:25:00,48.5,48.2,30.15,WNW,294,0.0,1.0,99,0.00,,,0.01,Wunderground v.1.15,2013-02-04 20:25:00,
2013-02-04 12:30:00,48.7,48.4,30.15,WNW,297,0.0,4.0,99,0.00,,,0.01,Wunderground v.1.15,2013-02-04 20:30:00,
2013-02-04 12:35:00,48.6,48.3,30.15,SSW,205,1.0,4.0,99,0.00,,,0.01,Wunderground v.1.15,2013-02-04 20:35:00,
2013-02-04 12:40:00,48.8,48.3,30.15,SW,220,1.0,1.0,98,0.00,,,0.01,Wunderground v.1.15,2013-02-04 20:40:00,
2013-02-04 12:50:00,49.0,48.7,30.14,SSE,165,1.0,1.0,99,0.00,,,0.01,Wunderground v.1.15,2013-02-04 20:50:00,
2013-02-04 12:55:00,49.2,48.7,30.14,SE,127,2.0,3.0,98,0.00,,,0.01,Wunderground v.1.15,2013-02-04 20:55:00,
2013-02-04 13:00:00,49.3,48.8,30.13,ESE,123,2.0,2.0,98,0.00,,,0.01,Wunderground v.1.15,2013-02-04 21:00:00,
2013-02-04 13:05:00,49.3,48.8,30.13,SE,125,1.0,2.0,98,0.00,,,0.01,Wunderground v.1.15,2013-02-04 21:05:00,
2013-02-04 13:15:00,49.5,49.0,30.13,SSE,164,2.0,6.0,98,0.00,,,0.01,Wunderground v.1.15,2013-02-04 21:15:00,
2013-02-04 13:20:00,49.7,48.9,30.13,East,82,2.0,2.0,97,0.00,,,0.01,Wunderground v.1.15,2013-02-04 21:20:00,
2013-02-04 13:25:00,49.7,48.9,30.13,South,191,1.0,6.0,97,0.00,,,0.01,Wunderground v.1.15,2013-02-04 21:25:00,
2013-02-04 13:35:00,49.9,48.8,30.12,SSW,196,3.0,3.0,96,0.00,,,0.01,Wunderground v.1.15,2013-02-04 21:35:00,
2013-02-04 13:40:00,49.9,48.8,30.12,SSE,155,4.0,4.0,96,0.00,,,0.01,Wunderground v.1.15,2013-02-04 21:40:00,
2013-02-04 13:45:00,49.8,48.4,30.12,South,173,3.0,4.0,95,0.00,,,0.01,Wunderground v.1.15,2013-02-04 21:45:00,
2013-02-04 13:50:00,49.9,48.2,30.11,South,186,2.0,4.0,94,0.00,,,0.01,Wunderground v.1.15,2013-02-04 21:50:00,
2013-02-04 13:55:00,50.0,48.3,30.11,South,175,3.0,5.0,94,0.00,,,0.01,Wunderground v.1.15,2013-02-04 21:55:00,
2013-02-04 14:05:00,49.7,47.8,30.11,SSW,199,5.0,7.0,93,0.00,,,0.01,Wunderground v.1.15,2013-02-04 22:05:00,
2013-02-04 14:10:00,49.9,48.2,30.11,SSE,155,5.0,5.0,94,0.00,,,0.01,Wunderground v.1.15,2013-02-04 22:10:00,
2013-02-04 14:15:00,49.7,47.8,30.11,SSW,196,3.0,5.0,93,0.00,,,0.01,Wunderground v.1.15,2013-02-04 22:15:00,
2013-02-04 14:20:00,49.5,47.6,30.11,SSW,207,4.0,7.0,93,0.00,,,0.01,Wunderground v.1.15,2013-02-04 22:20:00,
2013-02-04 14:25:00,49.4,47.5,30.11,South,182,4.0,7.0,93,0.00,,,0.01,Wunderground v.1.15,2013-02-04 22:25:00,
2013-02-04 14:35:00,48.9,47.0,30.11,SSW,196,5.0,7.0,93,0.00,,,0.01,Wunderground v.1.15,2013-02-04 22:35:00,
2013-02-04 14:40:00,48.7,46.8,30.11,SSW,201,6.0,6.0,93,0.00,,,0.01,Wunderground v.1.15,2013-02-04 22:40:00,
2013-02-04 14:45:00,48.8,47.2,30.11,SSW,202,5.0,6.0,94,0.00,,,0.01,Wunderground v.1.15,2013-02-04 22:45:00,
2013-02-04 14:55:00,48.7,47.1,30.11,South,173,5.0,5.0,94,0.00,,,0.01,Wunderground v.1.15,2013-02-04 22:55:00,
2013-02-04 15:00:00,48.7,47.1,30.11,SSW,205,5.0,6.0,94,0.00,,,0.01,Wunderground v.1.15,2013-02-04 23:00:00,
2013-02-04 15:05:00,48.8,47.2,30.11,SSW,194,5.0,6.0,94,0.00,,,0.01,Wunderground v.1.15,2013-02-04 23:05:00,
2013-02-04 15:10:00,48.6,46.7,30.11,SSW,200,5.0,6.0,93,0.00,,,0.01,Wunderground v.1.15,2013-02-04 23:10:00,
2013-02-04 15:20:00,48.9,47.0,30.11,SSW,201,5.0,6.0,93,0.00,,,0.01,Wunderground v.1.15,2013-02-04 23:20:00,
2013-02-04 15:25:00,49.1,47.2,30.11,South,169,5.0,6.0,93,0.00,,,0.01,Wunderground v.1.15,2013-02-04 23:25:00,
2013-02-04 15:30:00,49.1,47.2,30.11,SE,146,4.0,4.0,93,0.00,,,0.01,Wunderground v.1.15,2013-02-04 23:30:00,
2013-02-04 15:35:00,49.3,47.4,30.11,South,180,3.0,4.0,93,0.00,,,0.01,Wunderground v.1.15,2013-02-04 23:35:00,
2013-02-04 15:40:00,49.5,47.6,30.11,SSW,196,3.0,6.0,93,0.00,,,0.01,Wunderground v.1.15,2013-02-04 23:40:00,
2013-02-04 15:50:00,49.2,47.0,30.11,South,182,4.0,4.0,92,0.00,,,0.01,Wunderground v.1.15,2013-02-04 23:50:00,
2013-02-04 15:55:00,49.2,47.0,30.10,South,176,3.0,6.0,92,0.00,,,0.01,Wunderground v.1.15,2013-02-04 23:55:00,
2013-02-04 16:00:00,49.0,46.8,30.10,SSE,155,3.0,3.0,92,0.00,,,0.01,Wunderground v.1.15,2013-02-05 00:00:00,
2013-02-04 16:05:00,48.8,46.6,30.10,SSE,156,3.0,3.0,92,0.00,,,0.01,Wunderground v.1.15,2013-02-05 00:05:00,
2013-02-04 16:10:00,48.8,46.6,30.10,SSE,157,1.0,1.0,92,0.00,,,0.01,Wunderground v.1.15,2013-02-05 00:10:00,
2013-02-04 16:20:00,49.0,46.8,30.10,SSE,157,1.0,1.0,92,0.00,,,0.01,Wunderground v.1.15,2013-02-05 00:20:00,
2013-02-04 16:25:00,48.8,46.6,30.10,SSE,157,1.0,1.0,92,0.00,,,0.01,Wunderground v.1.15,2013-02-05 00:25:00,
2013-02-04 16:30:00,48.7,46.5,30.10,SSE,157,1.0,1.0,92,0.00,,,0.01,Wunderground v.1.15,2013-02-05 00:30:00,
2013-02-04 16:35:00,48.6,46.4,30.10,SSE,157,1.0,1.0,92,0.00,,,0.01,Wunderground v.1.15,2013-02-05 00:35:00,
2013-02-04 16:40:00,48.7,46.8,30.10,SSE,157,0.0,1.0,93,0.00,,,0.01,Wunderground v.1.15,2013-02-05 00:40:00,
2013-02-04 16:50:00,48.5,46.6,30.09,SSE,157,0.0,1.0,93,0.00,,,0.01,Wunderground v.1.15,2013-02-05 00:50:00,
2013-02-04 16:55:00,48.3,46.4,30.09,SSE,159,1.0,2.0,93,0.00,,,0.01,Wunderground v.1.15,2013-02-05 00:55:00,
2013-02-04 17:00:00,48.2,46.3,30.09,SSE,159,1.0,1.0,93,0.00,,,0.01,Wunderground v.1.15,2013-02-05 01:00:00,
2013-02-04 17:05:00,48.3,46.4,30.08,SE,144,0.0,1.0,93,0.00,,,0.01,Wunderground v.1.15,2013-02-05 01:05:00,
2013-02-04 17:15:00,48.3,46.4,30.08,East,101,0.0,1.0,93,0.00,,,0.01,Wunderground v.1.15,2013-02-05 01:15:00,
2013-02-04 17:20:00,48.2,47.7,30.08,SE,125,0.0,1.0,98,0.00,,,0.01,Wunderground v.1.15,2013-02-05 01:20:00,
2013-02-04 17:25:00,48.2,46.3,30.08,SE,137,0.0,1.0,93,0.00,,,0.01,Wunderground v.1.15,2013-02-05 01:25:00,
2013-02-04 17:30:00,48.0,46.1,30.08,ESE,111,0.0,1.0,93,0.00,,,0.01,Wunderground v.1.15,2013-02-05 01:30:00,
2013-02-04 17:40:00,48.0,46.4,30.08,ESE,123,0.0,1.0,94,0.00,,,0.01,Wunderground v.1.15,2013-02-05 01:40:00,
2013-02-04 17:45:00,47.9,46.3,30.09,ESE,123,1.0,1.0,94,0.00,,,0.01,Wunderground v.1.15,2013-02-05 01:45:00,
2013-02-04 17:50:00,47.8,46.2,30.09,ESE,123,0.0,1.0,94,0.00,,,0.01,Wunderground v.1.15,2013-02-05 01:50:00,
2013-02-04 17:55:00,47.5,45.9,30.09,ESE,123,0.0,1.0,94,0.00,,,0.01,Wunderground v.1.15,2013-02-05 01:55:00,
2013-02-04 18:00:00,47.2,45.6,30.09,ESE,123,0.0,1.0,94,0.00,,,0.01,Wunderground v.1.15,2013-02-05 02:00:00,
2013-02-04 18:10:00,46.9,45.3,30.09,ESE,123,0.0,3.0,94,0.00,,,0.01,Wunderground v.1.15,2013-02-05 02:10:00,
2013-02-04 18:15:00,46.7,45.1,30.10,South,172,1.0,3.0,94,0.00,,,0.01,Wunderground v.1.15,2013-02-05 02:15:00,
2013-02-04 18:20:00,46.4,45.0,30.09,SSW,199,3.0,5.0,95,0.00,,,0.01,Wunderground v.1.15,2013-02-05 02:20:00,
2013-02-04 18:25:00,46.3,44.9,30.10,SSW,200,4.0,5.0,95,0.00,,,0.01,Wunderground v.1.15,2013-02-05 02:25:00,
2013-02-04 18:30:00,46.5,45.4,30.10,SSW,200,4.0,4.0,96,0.00,,,0.01,Wunderground v.1.15,2013-02-05 02:30:00,
2013-02-04 18:40:00,47.0,45.9,30.10,SSW,200,4.0,7.0,96,0.00,,,0.01,Wunderground v.1.15,2013-02-05 02:40:00,
2013-02-04 18:45:00,47.3,46.2,30.10,SSW,199,4.0,7.0,96,0.00,,,0.01,Wunderground v.1.15,2013-02-05 02:45:00,
2013-02-04 18:50:00,47.5,46.4,30.10,SSW,196,4.0,4.0,96,0.00,,,0.01,Wunderground v.1.15,2013-02-05 02:50:00,
2013-02-04 18:55:00,47.6,46.5,30.10,SSW,198,3.0,6.0,96,0.00,,,0.01,Wunderground v.1.15,2013-02-05 02:55:00,
2013-02-04 19:05:00,47.8,46.7,30.09,SW,217,4.0,8.0,96,0.00,,,0.01,Wunderground v.1.15,2013-02-05 03:05:00,
2013-02-04 19:10:00,47.8,46.4,30.09,SW,214,4.0,4.0,95,0.00,,,0.01,Wunderground v.1.15,2013-02-05 03:10:00,
2013-02-04 19:15:00,47.8,46.4,30.09,SW,227,4.0,4.0,95,0.00,,,0.01,Wunderground v.1.15,2013-02-05 03:15:00,
2013-02-04 19:20:00,47.8,46.4,30.09,SSW,211,3.0,3.0,95,0.00,,,0.01,Wunderground v.1.15,2013-02-05 03:20:00,
2013-02-04 19:30:00,47.8,46.4,30.09,SSW,206,2.0,7.0,95,0.00,,,0.01,Wunderground v.1.15,2013-02-05 03:30:00,
2013-02-04 19:35:00,47.7,46.1,30.09,SSW,205,4.0,8.0,94,0.00,,,0.01,Wunderground v.1.15,2013-02-05 03:35:00,
2013-02-04 19:40:00,47.7,46.1,30.09,SW,218,5.0,5.0,94,0.00,,,0.01,Wunderground v.1.15,2013-02-05 03:40:00,
2013-02-04 19:45:00,47.7,46.1,30.08,SW,230,5.0,5.0,94,0.00,,,0.01,Wunderground v.1.15,2013-02-05 03:45:00,
2013-02-04 19:50:00,47.7,46.1,30.08,SW,226,4.0,4.0,94,0.00,,,0.01,Wunderground v.1.15,2013-02-05 03:50:00,
2013-02-04 19:55:00,47.7,46.1,30.09,SW,221,4.0,5.0,94,0.00,,,0.01,Wunderground v.1.15,2013-02-05 03:55:00,
2013-02-04 20:05:00,47.6,46.0,30.08,SW,219,4.0,4.0,94,0.00,,,0.01,Wunderground v.1.15,2013-02-05 04:05:00,
2013-02-04 20:10:00,47.6,46.0,30.08,SSW,201,4.0,4.0,94,0.00,,,0.01,Wunderground v.1.15,2013-02-05 04:10:00,
2013-02-04 20:15:00,47.6,46.0,30.08,SW,218,4.0,4.0,94,0.00,,,0.01,Wunderground v.1.15,2013-02-05 04:15:00,
2013-02-04 20:20:00,47.5,45.9,30.08,SSW,203,4.0,5.0,94,0.00,,,0.01,Wunderground v.1.15,2013-02-05 04:20:00,
2013-02-04 20:30:00,47.2,45.6,30.08,SSW,204,4.0,4.0,94,0.00,,,0.01,Wunderground v.1.15,2013-02-05 04:30:00,
2013-02-04 20:35:00,47.1,45.5,30.09,SSW,202,4.0,4.0,94,0.00,,,0.01,Wunderground v.1.15,2013-02-05 04:35:00,
2013-02-04 20:40:00,47.1,45.5,30.09,SSW,202,3.0,3.0,94,0.00,,,0.01,Wunderground v.1.15,2013-02-05 04:40:00,
2013-02-04 20:45:00,46.9,45.3,30.09,SSW,202,3.0,3.0,94,0.00,,,0.01,Wunderground v.1.15,2013-02-05 04:45:00,
2013-02-04 20:50:00,47.1,45.5,30.10,SSW,202,3.0,3.0,94,0.00,,,0.01,Wunderground v.1.15,2013-02-05 04:50:00,
2013-02-04 20:55:00,47.1,45.7,30.10,SSW,202,4.0,4.0,95,0.00,,,0.01,Wunderground v.1.15,2013-02-05 04:55:00,
2013-02-04 21:05:00,47.0,45.4,30.10,SSW,202,2.0,3.0,94,0.00,,,0.01,Wunderground v.1.15,2013-02-05 05:05:00,
2013-02-04 21:10:00,47.0,45.6,30.10,SSW,202,0.0,1.0,95,0.00,,,0.01,Wunderground v.1.15,2013-02-05 05:10:00,
2013-02-04 21:15:00,46.9,45.5,30.09,SSW,202,0.0,1.0,95,0.00,,,0.01,Wunderground v.1.15,2013-02-05 05:15:00,
2013-02-04 21:25:00,46.7,45.1,30.10,SSW,201,1.0,1.0,94,0.00,,,0.01,Wunderground v.1.15,2013-02-05 05:25:00,
2013-02-04 21:30:00,46.6,45.2,30.10,SSW,202,1.0,1.0,95,0.00,,,0.01,Wunderground v.1.15,2013-02-05 05:30:00,
2013-02-04 21:35:00,46.9,45.5,30.11,SSW,200,2.0,3.0,95,0.00,,,0.01,Wunderground v.1.15,2013-02-05 05:35:00,
2013-02-04 21:40:00,46.9,45.5,30.11,SSW,201,2.0,4.0,95,0.00,,,0.01,Wunderground v.1.15,2013-02-05 05:40:00,
2013-02-04 21:50:00,47.0,45.6,30.10,SSW,201,1.0,1.0,95,0.00,,,0.01,Wunderground v.1.15,2013-02-05 05:50:00,
2013-02-04 21:55:00,47.1,45.7,30.10,SSW,201,0.0,1.0,95,0.00,,,0.01,Wunderground v.1.15,2013-02-05 05:55:00,
2013-02-04 22:00:00,47.1,45.7,30.10,SSW,200,2.0,2.0,95,0.00,,,0.01,Wunderground v.1.15,2013-02-05 06:00:00,
2013-02-04 22:05:00,47.0,45.6,30.10,SSW,200,2.0,2.0,95,0.00,,,0.01,Wunderground v.1.15,2013-02-05 06:05:00,
2013-02-04 22:10:00,46.9,45.5,30.10,SSW,200,1.0,1.0,95,0.00,,,0.01,Wunderground v.1.15,2013-02-05 06:10:00,
2013-02-04 22:15:00,46.9,45.5,30.10,SSW,199,1.0,1.0,95,0.00,,,0.01,Wunderground v.1.15,2013-02-05 06:15:00,
2013-02-04 22:20:00,46.8,45.4,30.10,SSW,201,1.0,7.0,95,0.00,,,0.01,Wunderground v.1.15,2013-02-05 06:20:00,
2013-02-04 22:25:00,46.9,45.3,30.10,SSW,202,2.0,7.0,94,0.00,,,0.01,Wunderground v.1.15,2013-02-05 06:25:00,
2013-02-04 22:30:00,47.0,45.4,30.10,SW,225,4.0,5.0,94,0.00,,,0.01,Wunderground v.1.15,2013-02-05 06:30:00,
2013-02-04 22:40:00,47.1,45.5,30.11,SW,229,3.0,4.0,94,0.00,,,0.01,Wunderground v.1.15,2013-02-05 06:40:00,
2013-02-04 22:45:00,47.1,45.5,30.10,SW,229,2.0,4.0,94,0.00,,,0.01,Wunderground v.1.15,2013-02-05 06:45:00,
2013-02-04 22:50:00,47.0,45.4,30.10,SW,227,2.0,3.0,94,0.00,,,0.01,Wunderground v.1.15,2013-02-05 06:50:00,
2013-02-04 22:55:00,47.0,45.4,30.11,SW,226,2.0,3.0,94,0.00,,,0.01,Wunderground v.1.15,2013-02-05 06:55:00,
2013-02-04 23:00:00,47.0,45.4,30.10,SW,224,1.0,1.0,94,0.00,,,0.01,Wunderground v.1.15,2013-02-05 07:00:00,
2013-02-04 23:05:00,47.0,45.4,30.10,SW,227,2.0,5.0,94,0.00,,,0.01,Wunderground v.1.15,2013-02-05 07:05:00,
2013-02-04 23:15:00,46.8,45.4,30.10,SW,227,2.0,2.0,95,0.00,,,0.01,Wunderground v.1.15,2013-02-05 07:15:00,
2013-02-04 23:20:00,46.8,45.4,30.10,SW,227,1.0,1.0,95,0.00,,,0.01,Wunderground v.1.15,2013-02-05 07:20:00,
2013-02-04 23:25:00,46.8,45.4,30.10,SW,227,1.0,2.0,95,0.00,,,0.01,Wunderground v.1.15,2013-02-05 07:25:00,
2013-02-04 23:30:00,46.7,45.3,30.10,SW,227,0.0,1.0,95,0.00,,,0.01,Wunderground v.1.15,2013-02-05 07:30:00,
2013-02-04 23:40:00,46.7,45.3,30.10,SW,227,1.0,1.0,95,0.00,,,0.01,Wunderground v.1.15,2013-02-05 07:40:00,
2013-02-04 23:45:00,46.8,45.4,30.10,SW,227,1.0,1.0,95,0.00,,,0.01,Wunderground v.1.15,2013-02-05 07:45:00,
2013-02-04 23:50:00,46.9,45.5,30.10,SW,227,1.0,2.0,95,0.00,,,0.01,Wunderground v.1.15,2013-02-05 07:50:00,
2013-02-04 23:55:00,47.1,45.7,30.10,SW,227,1.0,2.0,95,0.00,,,0.01,Wunderground v.1.15,2013-02-05 07:55:00,